METAR Data
IDs: Format: Raw Decoded Include TAF

Data at: 1210 UTC 21 Nov 2018

KMAF 211153Z AUTO 12004KT 10SM CLR 02/M01 A3025 RMK AO2 SLP233 T00221006 10056 20006 58004
KMAF 211053Z AUTO 06005KT 10SM CLR 01/M01 A3025 RMK AO2 SLP234 T00111011
KMAF 210953Z AUTO 00000KT 10SM CLR 01/M02 A3026 RMK AO2 SLP236 T00111022
KMAF 210853Z AUTO 15004KT 10SM CLR 03/M01 A3026 RMK AO2 SLP234 T00331011 56008
KMAF 210753Z AUTO 14004KT 10SM CLR 04/M01 A3027 RMK AO2 SLP236 T00391011
KMAF 210653Z AUTO 13007KT 10SM CLR 05/M01 A3027 RMK AO2 SLP238 T00501006
KMAF 210553Z AUTO 13006KT 10SM CLR 05/M01 A3029 RMK AO2 SLP244 T00501006 10106 20044 401331011 50003
KMAF 210453Z 13005KT 10SM CLR 05/M01 A3029 RMK AO2 SLP247 T00501006
KMAF 210353Z 13006KT 10SM CLR 06/M01 A3029 RMK AO2 SLP247 T00611006
KMAF 210253Z 11006KT 10SM CLR 07/M01 A3028 RMK AO2 SLP243 T00721006 51006
KMAF 210153Z 09007KT 10SM CLR 07/M02 A3027 RMK AO2 SLP246 T00721017
KMAF 210053Z 10005KT 10SM CLR 08/M02 A3026 RMK AO2 SLP243 T00831022
KMAF 202353Z 11006KT 10SM CLR 11/M02 A3026 RMK AO2 SLP238 T01061017 10133 20106 56008
KMAF 202253Z 11009KT 10SM CLR 13/M02 A3026 RMK AO2 SLP237 T01281022
KMAF 202153Z 14008KT 10SM CLR 13/M02 A3027 RMK AO2 SLP239 T01281022
KMAF 202053Z 13009KT 10SM CLR 13/M03 A3028 RMK AO2 SLP243 T01281028 56029
KMAF 201953Z 13008KT 10SM CLR 12/M02 A3030 RMK AO2 SLP249 T01221022
KMAF 201853Z 12008KT 10SM CLR 12/M02 A3034 RMK AO2 SLP262 T01171017
KMAF 201753Z 11008KT 10SM CLR 11/M02 A3037 RMK AO2 SLP276 T01061022 10106 21011 58004
KMAF 201653Z 10010KT 10SM CLR 09/M02 A3039 RMK AO2 SLP282 T00941017
KMAF 201553Z 10008KT 10SM CLR 08/01 A3040 RMK AO2 SLP283 T00830006
KMAF 201453Z 06004KT 10SM CLR 05/01 A3039 RMK AO2 SLP283 T00500011 53020
KMAF 201353Z 36004KT 9SM CLR 00/M02 A3036 RMK AO2 SLP277 T00001017
KMAF 201253Z 36004KT 10SM CLR M01/M02 A3034 RMK AO2 SLP268 T10061022
KMAF 201153Z AUTO 01005KT 10SM CLR 00/M01 A3032 RMK AO2 SLP259 T00001011 10033 20000 53008
KMAF 201053Z AUTO 02008KT 9SM CLR 01/M01 A3031 RMK AO2 SLP252 T00061006
KMAF 200953Z AUTO 02008KT 8SM CLR 01/M01 A3031 RMK AO2 SLP248 T00111006
KMAF 200853Z AUTO 02005KT 8SM CLR 01/M01 A3030 RMK AO2 SLP245 T00111006 53002
KMAF 200753Z AUTO 03004KT 8SM CLR 03/01 A3029 RMK AO2 SLP241 T00280006
KMAF 200653Z AUTO 02007KT 9SM CLR 03/01 A3029 RMK AO2 SLP244 T00280011
KMAF 200553Z 01007KT 8SM CLR 03/01 A3029 RMK AO2 SLP245 T00280011 10122 20028 401671006 51016
KMAF 200453Z 05006KT 8SM CLR 04/01 A3028 RMK AO2 SLP242 T00390011
KMAF 200353Z 36007KT 9SM CLR 04/02 A3026 RMK AO2 SLP239 T00440017
KMAF 200253Z 00000KT 8SM CLR 06/02 A3024 RMK AO2 SLP232 T00560017 53022
KMAF 200153Z 12004KT 8SM CLR 09/03 A3022 RMK AO2 SLP225 T00890028
KMAF 200053Z 13006KT 8SM CLR 10/03 A3019 RMK AO2 SLP215 T01000028